createdAt,value
2023-05-19T00:01:03.719Z,5.73
2023-05-19T00:03:34.211Z,5.70
2023-05-19T00:06:06.077Z,5.68
2023-05-19T00:08:35.575Z,5.66
2023-05-19T00:11:03.996Z,5.64
2023-05-19T00:13:32.572Z,5.62
2023-05-19T00:16:01.047Z,5.60
2023-05-19T00:18:29.915Z,5.58
2023-05-19T00:20:58.000Z,5.55
2023-05-19T00:23:27.486Z,5.53
2023-05-19T00:25:55.522Z,5.50
2023-05-19T00:28:23.551Z,5.48
2023-05-19T00:30:52.499Z,5.48
2023-05-19T00:33:20.632Z,5.44
2023-05-19T00:35:48.858Z,5.43
2023-05-19T00:38:16.994Z,5.41
2023-05-19T00:40:46.866Z,5.39
2023-05-19T00:43:14.956Z,5.37
2023-05-19T00:45:43.219Z,5.35
2023-05-19T00:48:11.352Z,5.33
2023-05-19T00:50:39.557Z,5.33
2023-05-19T00:53:08.139Z,5.30
2023-05-19T00:55:40.547Z,5.29
2023-05-19T00:58:12.270Z,5.25
2023-05-19T01:00:40.768Z,5.23
2023-05-19T01:03:11.532Z,5.21
2023-05-19T01:05:44.771Z,5.19
2023-05-19T01:08:12.927Z,5.16
2023-05-19T01:10:41.210Z,5.15
2023-05-19T01:13:10.730Z,5.13
2023-05-19T01:15:54.716Z,5.09
2023-05-19T01:18:32.011Z,5.08
2023-05-19T01:21:23.678Z,5.09
2023-05-19T01:24:03.859Z,5.07
2023-05-19T01:26:56.943Z,5.05
2023-05-19T01:29:42.598Z,5.04
2023-05-19T01:32:13.356Z,5.00
2023-05-19T01:34:45.379Z,4.98
2023-05-19T01:37:16.040Z,4.94
2023-05-19T01:39:45.742Z,4.92
2023-05-19T01:42:15.572Z,4.91
2023-05-19T01:44:44.117Z,4.87
2023-05-19T01:47:14.252Z,4.85
2023-05-19T01:49:42.378Z,4.82
2023-05-19T01:52:10.618Z,4.80
2023-05-19T01:54:38.759Z,4.78
2023-05-19T01:57:21.185Z,4.76
2023-05-19T01:59:58.025Z,4.73
2023-05-19T02:02:37.168Z,4.70
2023-05-19T02:05:14.672Z,4.68
2023-05-19T02:07:49.636Z,4.66
2023-05-19T02:10:24.363Z,4.64
2023-05-19T02:12:54.602Z,4.61
2023-05-19T02:15:26.104Z,4.60
2023-05-19T02:18:00.390Z,4.57
2023-05-19T02:20:29.379Z,4.55
2023-05-19T02:22:57.842Z,4.51
2023-05-19T02:25:26.074Z,4.50
2023-05-19T02:27:54.291Z,4.49
2023-05-19T02:30:22.441Z,4.47
2023-05-19T02:32:50.568Z,4.44
2023-05-19T02:35:20.317Z,4.43
2023-05-19T02:37:48.401Z,4.41
2023-05-19T02:40:16.508Z,4.39
2023-05-19T02:42:45.485Z,4.36
2023-05-19T02:45:13.600Z,4.34
2023-05-19T02:47:42.616Z,4.33
2023-05-19T02:50:10.996Z,4.30
2023-05-19T02:52:40.515Z,4.28
2023-05-19T02:55:09.538Z,4.26
2023-05-19T02:57:37.640Z,4.25
2023-05-19T03:00:06.963Z,4.24
2023-05-19T03:02:35.561Z,4.24
2023-05-19T03:05:04.028Z,4.23
2023-05-19T03:07:33.770Z,4.23
2023-05-19T03:10:05.640Z,4.21
2023-05-19T03:12:34.520Z,4.20
2023-05-19T03:15:02.697Z,4.21
2023-05-19T03:17:33.852Z,4.20
2023-05-19T03:20:02.626Z,4.20
2023-05-19T03:22:30.784Z,4.19
2023-05-19T03:24:58.912Z,4.20
2023-05-19T03:27:28.516Z,4.20
2023-05-19T03:29:56.567Z,4.22
2023-05-19T03:32:25.259Z,4.23
2023-05-19T03:34:53.390Z,4.25
2023-05-19T03:37:21.700Z,4.27
2023-05-19T03:39:49.747Z,4.30
2023-05-19T03:42:18.127Z,4.33
2023-05-19T03:44:47.700Z,4.36
2023-05-19T03:47:16.000Z,4.39
2023-05-19T03:49:52.913Z,4.44
2023-05-19T03:52:46.811Z,4.49
2023-05-19T03:55:25.688Z,4.54
2023-05-19T03:57:53.926Z,4.62
2023-05-19T04:00:23.820Z,4.70
2023-05-19T04:02:52.390Z,4.79
2023-05-19T04:05:20.579Z,4.86
2023-05-19T04:07:48.612Z,4.95
2023-05-19T04:10:16.863Z,5.04
2023-05-19T04:12:44.917Z,5.14
2023-05-19T04:15:13.208Z,5.22
2023-05-19T04:17:43.330Z,5.32
2023-05-19T04:20:12.801Z,5.41
2023-05-19T04:22:40.868Z,5.51
2023-05-19T04:25:09.636Z,5.62
2023-05-19T04:27:40.985Z,5.73
2023-05-19T04:30:10.155Z,5.96
2023-05-19T04:32:39.708Z,6.10
2023-05-19T04:35:09.962Z,6.16
2023-05-19T04:37:39.168Z,6.25
2023-05-19T04:40:11.229Z,6.37
2023-05-19T04:42:43.251Z,6.50
2023-05-19T04:45:12.704Z,6.61
2023-05-19T04:47:44.481Z,6.75
2023-05-19T04:50:14.438Z,6.86
2023-05-19T04:52:45.543Z,6.97
2023-05-19T04:55:13.801Z,7.10
2023-05-19T04:57:43.174Z,7.28
2023-05-19T05:00:13.907Z,7.48
2023-05-19T05:02:57.649Z,7.57
2023-05-19T05:05:29.054Z,7.69
2023-05-19T05:07:57.489Z,7.88
2023-05-19T05:10:28.180Z,8.21
2023-05-19T05:12:56.756Z,8.63
2023-05-19T05:15:28.641Z,9.00
2023-05-19T05:17:58.076Z,9.34
2023-05-19T05:20:28.974Z,9.63
2023-05-19T05:22:58.803Z,9.98
2023-05-19T05:25:28.371Z,10.28
2023-05-19T05:27:59.066Z,10.56
2023-05-19T05:30:27.375Z,10.80
2023-05-19T05:32:55.832Z,10.99
2023-05-19T05:35:35.519Z,11.20
2023-05-19T05:38:05.297Z,11.36
2023-05-19T05:40:33.828Z,11.48
2023-05-19T05:43:02.075Z,11.59
2023-05-19T05:45:33.702Z,11.65
2023-05-19T05:48:03.284Z,11.72
2023-05-19T05:50:33.103Z,11.77
2023-05-19T05:53:02.968Z,11.79
2023-05-19T05:55:31.904Z,11.84
2023-05-19T05:58:02.395Z,11.83
2023-05-19T06:00:30.918Z,11.85
2023-05-19T06:02:59.227Z,11.84
2023-05-19T06:05:27.729Z,11.85
2023-05-19T06:07:56.753Z,11.83
2023-05-19T06:10:29.360Z,11.79
2023-05-19T06:12:57.647Z,11.79
2023-05-19T06:15:27.097Z,11.77
2023-05-19T06:18:06.160Z,11.75
2023-05-19T06:20:34.567Z,11.73
2023-05-19T06:23:03.868Z,11.70
2023-05-19T06:25:33.531Z,11.68
2023-05-19T06:28:02.095Z,11.64
2023-05-19T06:30:30.349Z,11.63
2023-05-19T06:33:18.813Z,11.63
2023-05-19T06:35:46.977Z,11.64
2023-05-19T06:38:16.058Z,11.64
2023-05-19T06:40:45.681Z,11.66
2023-05-19T06:43:13.866Z,11.67
2023-05-19T06:45:56.144Z,11.71
2023-05-19T06:48:26.562Z,11.73
2023-05-19T06:50:54.730Z,11.73
2023-05-19T06:53:23.095Z,11.74
2023-05-19T06:55:59.719Z,11.80
2023-05-19T06:58:32.049Z,11.86
2023-05-19T07:01:01.659Z,11.92
2023-05-19T07:03:35.533Z,12.01
2023-05-19T07:06:05.665Z,12.07
2023-05-19T07:08:37.169Z,12.15
2023-05-19T07:11:08.197Z,12.22
2023-05-19T07:13:36.448Z,12.25
2023-05-19T07:16:05.800Z,12.33
2023-05-19T07:18:34.566Z,12.42
2023-05-19T07:21:02.603Z,12.47
2023-05-19T07:23:30.837Z,12.50
2023-05-19T07:25:59.139Z,12.52
2023-05-19T07:28:28.646Z,12.63
2023-05-19T07:30:56.660Z,12.70
2023-05-19T07:33:24.865Z,12.75
2023-05-19T07:35:52.881Z,12.80
2023-05-19T07:38:21.482Z,12.86
2023-05-19T07:40:49.693Z,12.87
2023-05-19T07:43:17.751Z,12.92
2023-05-19T07:45:47.245Z,12.99
2023-05-19T07:48:15.448Z,13.01
2023-05-19T07:50:43.597Z,13.06
2023-05-19T07:53:11.722Z,13.10
2023-05-19T07:55:39.805Z,13.19
2023-05-19T07:58:08.021Z,13.30
2023-05-19T08:00:36.826Z,13.37
2023-05-19T08:03:06.608Z,13.47
2023-05-19T08:05:36.144Z,13.57
2023-05-19T08:08:04.840Z,13.61
2023-05-19T08:10:33.209Z,13.68
2023-05-19T08:13:01.458Z,13.74
2023-05-19T08:15:29.824Z,13.80
2023-05-19T08:17:58.047Z,13.84
2023-05-19T08:20:27.538Z,13.92
2023-05-19T08:22:55.658Z,14.02
2023-05-19T08:25:23.766Z,14.10
2023-05-19T08:27:52.206Z,14.14
2023-05-19T08:30:20.571Z,14.26
2023-05-19T08:32:48.907Z,14.36
2023-05-19T08:35:17.167Z,14.42
2023-05-19T08:37:46.669Z,14.52
2023-05-19T08:40:19.455Z,14.57
2023-05-19T08:42:47.879Z,14.63
2023-05-19T08:45:16.998Z,14.65
2023-05-19T08:47:47.454Z,14.76
2023-05-19T08:50:21.432Z,14.87
2023-05-19T08:52:53.750Z,14.95
2023-05-19T08:55:41.270Z,15.07
2023-05-19T08:58:10.004Z,15.11
2023-05-19T09:00:38.521Z,15.25
2023-05-19T09:03:22.782Z,15.34
2023-05-19T09:05:51.909Z,15.55
2023-05-19T09:08:22.666Z,15.71
2023-05-19T09:10:51.057Z,15.87
2023-05-19T09:13:19.510Z,16.12
2023-05-19T09:15:49.747Z,16.31
2023-05-19T09:18:17.924Z,16.49
2023-05-19T09:20:47.439Z,16.66
2023-05-19T09:23:16.593Z,16.96
2023-05-19T09:25:53.608Z,17.33
2023-05-19T09:28:26.129Z,17.72
2023-05-19T09:31:05.201Z,18.13
2023-05-19T09:33:36.369Z,18.46
2023-05-19T09:36:06.152Z,18.82
2023-05-19T09:38:34.542Z,19.31
2023-05-19T09:41:04.825Z,19.38
2023-05-19T09:43:35.025Z,19.36
2023-05-19T09:46:06.225Z,19.30
2023-05-19T09:48:34.593Z,19.15
2023-05-19T09:51:03.264Z,19.73
2023-05-19T09:53:32.705Z,19.94
2023-05-19T09:56:03.994Z,19.97
2023-05-19T09:58:34.822Z,20.00
2023-05-19T10:01:03.220Z,19.75
2023-05-19T10:03:32.983Z,20.13
2023-05-19T10:06:02.641Z,20.46
2023-05-19T10:08:32.006Z,20.67
2023-05-19T10:11:01.291Z,20.79
2023-05-19T10:13:32.185Z,20.82
2023-05-19T10:16:01.178Z,20.87
2023-05-19T10:18:30.536Z,20.97
2023-05-19T10:20:59.955Z,20.98
2023-05-19T10:23:28.055Z,21.00
2023-05-19T10:25:59.185Z,21.10
2023-05-19T10:28:36.672Z,21.23
2023-05-19T10:31:08.951Z,21.19
2023-05-19T10:33:48.553Z,21.20
2023-05-19T10:36:35.481Z,21.16
2023-05-19T10:39:08.654Z,21.17
2023-05-19T10:41:46.963Z,21.47
2023-05-19T10:44:29.465Z,21.41
2023-05-19T10:46:57.623Z,21.30
2023-05-19T10:49:25.927Z,21.04
2023-05-19T10:51:57.246Z,21.12
2023-05-19T10:54:43.095Z,20.56
2023-05-19T10:57:16.362Z,20.58
2023-05-19T10:59:46.092Z,20.07
2023-05-19T11:02:39.967Z,20.14
2023-05-19T11:05:14.640Z,20.19
2023-05-19T11:07:44.692Z,19.92
2023-05-19T11:10:13.591Z,20.04
2023-05-19T11:12:44.020Z,19.99
2023-05-19T11:15:16.007Z,19.77
2023-05-19T11:17:48.411Z,19.50
2023-05-19T11:20:23.755Z,19.40
2023-05-19T11:23:08.741Z,19.33
2023-05-19T11:25:44.116Z,18.97
2023-05-19T11:28:13.670Z,18.77
2023-05-19T11:30:44.627Z,18.74
2023-05-19T11:33:14.043Z,18.70
2023-05-19T11:35:44.577Z,18.71
2023-05-19T11:38:13.243Z,18.62
2023-05-19T11:40:43.552Z,18.72
2023-05-19T11:43:11.844Z,18.92
2023-05-19T11:45:40.278Z,18.84
2023-05-19T11:48:12.759Z,18.77
2023-05-19T11:50:44.053Z,18.86
2023-05-19T11:53:14.111Z,18.93
2023-05-19T11:55:47.028Z,19.10
2023-05-19T11:58:16.068Z,19.21
2023-05-19T12:00:46.329Z,19.39
2023-05-19T12:03:17.393Z,19.58
2023-05-19T12:05:48.020Z,19.91
2023-05-19T12:08:18.327Z,20.03
2023-05-19T12:10:49.572Z,19.89
2023-05-19T12:13:17.913Z,19.79
2023-05-19T12:15:46.046Z,19.75
2023-05-19T12:18:15.614Z,19.84
2023-05-19T12:20:44.540Z,19.83
2023-05-19T12:23:13.622Z,19.71
2023-05-19T12:25:41.981Z,19.60
2023-05-19T12:28:10.663Z,19.36
2023-05-19T12:30:39.013Z,19.43
2023-05-19T12:33:07.497Z,19.49
2023-05-19T12:35:39.035Z,19.19
2023-05-19T12:38:08.222Z,18.99
2023-05-19T12:40:37.796Z,19.13
2023-05-19T12:43:06.856Z,18.84
2023-05-19T12:45:36.310Z,18.61
2023-05-19T12:48:06.674Z,18.51
2023-05-19T12:50:38.938Z,18.53
2023-05-19T12:53:10.353Z,18.55
2023-05-19T12:55:41.768Z,18.74
2023-05-19T12:58:11.536Z,19.27
2023-05-19T13:00:43.757Z,19.60
2023-05-19T13:03:16.991Z,19.64
2023-05-19T13:05:47.836Z,19.72
2023-05-19T13:08:18.195Z,19.82
2023-05-19T13:10:47.782Z,19.86
2023-05-19T13:13:15.925Z,20.01
2023-05-19T13:15:45.385Z,20.14
2023-05-19T13:18:15.160Z,20.42
2023-05-19T13:20:45.012Z,20.65
2023-05-19T13:23:15.467Z,20.64
2023-05-19T13:25:44.079Z,20.30
2023-05-19T13:28:12.283Z,20.14
2023-05-19T13:30:41.958Z,19.81
2023-05-19T13:33:10.289Z,19.72
2023-05-19T13:35:39.016Z,19.85
2023-05-19T13:38:07.977Z,19.94
2023-05-19T13:40:37.730Z,19.87
2023-05-19T13:43:06.121Z,19.88
2023-05-19T13:45:34.485Z,19.72
2023-05-19T13:48:02.749Z,19.38
2023-05-19T13:50:31.370Z,19.59
2023-05-19T13:52:59.467Z,19.52
2023-05-19T13:55:27.568Z,19.52
2023-05-19T13:57:57.029Z,19.68
2023-05-19T14:00:25.319Z,19.83
2023-05-19T14:02:53.916Z,19.88
2023-05-19T14:05:22.027Z,19.76
2023-05-19T14:07:50.200Z,19.74
2023-05-19T14:10:18.264Z,19.95
2023-05-19T14:13:14.131Z,20.06
2023-05-19T14:15:38.102Z,20.34
2023-05-19T14:18:07.043Z,20.53
2023-05-19T14:20:35.631Z,20.58
2023-05-19T14:23:03.987Z,20.61
2023-05-19T14:25:32.020Z,20.25
2023-05-19T14:28:00.171Z,20.08
2023-05-19T14:30:28.216Z,19.79
2023-05-19T14:32:57.731Z,19.58
2023-05-19T14:35:26.197Z,19.58
2023-05-19T14:37:55.609Z,19.93
2023-05-19T14:40:23.695Z,20.18
2023-05-19T14:42:51.743Z,20.33
2023-05-19T14:45:19.919Z,20.36
2023-05-19T14:47:48.122Z,20.29
2023-05-19T14:50:17.841Z,20.38
2023-05-19T14:52:46.046Z,20.41
2023-05-19T14:55:14.125Z,20.45
2023-05-19T14:57:42.170Z,20.43
2023-05-19T15:00:10.998Z,20.23
2023-05-19T15:02:39.110Z,19.93
2023-05-19T15:05:07.748Z,19.57
2023-05-19T15:07:37.281Z,19.33
2023-05-19T15:10:06.123Z,19.46
2023-05-19T15:12:34.244Z,19.52
2023-05-19T15:15:02.368Z,19.58
2023-05-19T15:17:30.948Z,19.45
2023-05-19T15:19:59.094Z,19.64
2023-05-19T15:22:27.271Z,19.78
2023-05-19T15:24:56.853Z,19.92
2023-05-19T15:27:24.954Z,20.17
2023-05-19T15:29:52.969Z,20.30
2023-05-19T15:32:21.102Z,20.36
2023-05-19T15:34:49.278Z,20.22
2023-05-19T15:37:17.351Z,19.93
2023-05-19T15:39:45.491Z,19.75
2023-05-19T15:42:14.923Z,19.54
2023-05-19T15:44:45.950Z,19.37
2023-05-19T15:47:14.014Z,19.20
2023-05-19T15:49:42.043Z,19.19
2023-05-19T15:52:10.168Z,19.22
2023-05-19T15:54:38.184Z,19.12
2023-05-19T15:57:06.700Z,19.21
2023-05-19T15:59:36.139Z,19.35
2023-05-19T16:02:04.515Z,19.46
2023-05-19T16:04:33.390Z,19.56
2023-05-19T16:07:01.454Z,19.58
2023-05-19T16:09:29.520Z,19.53
2023-05-19T16:11:57.671Z,19.39
2023-05-19T16:14:29.377Z,19.19
2023-05-19T16:17:00.004Z,19.05
2023-05-19T16:19:28.400Z,18.87
2023-05-19T16:21:56.526Z,18.77
2023-05-19T16:24:24.578Z,18.74
2023-05-19T16:26:53.830Z,19.01
2023-05-19T16:29:22.128Z,19.30
2023-05-19T16:31:50.194Z,19.44
2023-05-19T16:34:19.736Z,19.54
2023-05-19T16:36:47.807Z,19.63
2023-05-19T16:39:15.920Z,19.17
2023-05-19T16:41:43.975Z,18.97
2023-05-19T16:44:14.429Z,18.81
2023-05-19T16:46:42.696Z,18.81
2023-05-19T16:49:11.247Z,19.10
2023-05-19T16:51:40.651Z,19.22
2023-05-19T16:54:08.758Z,19.25
2023-05-19T16:56:36.820Z,19.31
2023-05-19T16:59:04.901Z,19.34
2023-05-19T17:01:33.052Z,19.48
2023-05-19T17:04:01.184Z,19.59
2023-05-19T17:06:29.393Z,19.75
2023-05-19T17:08:58.836Z,19.90
2023-05-19T17:11:27.629Z,20.02
2023-05-19T17:13:55.729Z,20.23
2023-05-19T17:16:24.628Z,20.42
2023-05-19T17:18:52.892Z,20.64
2023-05-19T17:21:21.538Z,20.78
2023-05-19T17:23:49.668Z,20.93
2023-05-19T17:26:19.147Z,20.95
2023-05-19T17:28:47.196Z,20.76
2023-05-19T17:31:16.276Z,20.25
2023-05-19T17:33:44.432Z,19.88
2023-05-19T17:36:12.531Z,19.63
2023-05-19T17:38:42.011Z,19.33
2023-05-19T17:41:11.025Z,19.01
2023-05-19T17:43:41.699Z,18.75
2023-05-19T17:46:11.799Z,18.48
2023-05-19T17:48:40.769Z,18.24
2023-05-19T17:51:08.916Z,18.06
2023-05-19T17:53:37.763Z,17.82
2023-05-19T17:56:08.901Z,18.24
2023-05-19T17:58:37.656Z,18.36
2023-05-19T18:01:07.700Z,18.39
2023-05-19T18:03:36.513Z,18.39
2023-05-19T18:06:05.000Z,18.29
2023-05-19T18:08:33.840Z,18.14
2023-05-19T18:11:02.333Z,17.95
2023-05-19T18:13:30.942Z,17.81
2023-05-19T18:15:59.777Z,17.68
2023-05-19T18:18:29.320Z,17.54
2023-05-19T18:20:57.372Z,17.43
2023-05-19T18:23:25.667Z,17.33
2023-05-19T18:25:53.771Z,17.27
2023-05-19T18:28:21.866Z,17.22
2023-05-19T18:30:59.918Z,17.14
2023-05-19T18:33:30.938Z,17.05
2023-05-19T18:36:00.055Z,16.95
2023-05-19T18:38:28.174Z,16.80
2023-05-19T18:40:57.033Z,16.70
2023-05-19T18:43:25.244Z,16.60
2023-05-19T18:45:53.315Z,16.52
2023-05-19T18:48:22.619Z,16.45
2023-05-19T18:50:52.258Z,16.40
2023-05-19T18:53:22.071Z,16.34
2023-05-19T18:55:50.285Z,16.26
2023-05-19T18:58:18.793Z,16.21
2023-05-19T19:00:46.944Z,16.16
2023-05-19T19:03:15.049Z,16.10
2023-05-19T19:05:43.273Z,16.05
2023-05-19T19:08:12.777Z,15.97
2023-05-19T19:10:40.830Z,15.93
2023-05-19T19:13:08.930Z,15.88
2023-05-19T19:15:37.753Z,15.83
2023-05-19T19:18:08.062Z,15.79
2023-05-19T19:20:36.387Z,15.73
2023-05-19T19:23:06.547Z,15.66
2023-05-19T19:25:36.479Z,15.57
2023-05-19T19:28:04.738Z,15.48
2023-05-19T19:30:32.997Z,15.42
2023-05-19T19:33:01.443Z,15.36
2023-05-19T19:35:29.749Z,15.32
2023-05-19T19:37:58.539Z,15.28
2023-05-19T19:40:26.756Z,15.21
2023-05-19T19:42:56.286Z,15.14
2023-05-19T19:45:24.488Z,15.09
2023-05-19T19:47:52.856Z,15.01
2023-05-19T19:50:21.161Z,14.93
2023-05-19T19:52:49.250Z,14.81
2023-05-19T19:55:17.473Z,14.73
2023-05-19T19:57:49.307Z,14.64
2023-05-19T20:00:19.694Z,14.53
2023-05-19T20:03:03.468Z,14.44
2023-05-19T20:05:32.858Z,14.34
2023-05-19T20:08:01.205Z,14.24
2023-05-19T20:10:29.451Z,14.14
2023-05-19T20:12:58.924Z,14.03
2023-05-19T20:15:28.420Z,13.97
2023-05-19T20:17:56.573Z,13.90
2023-05-19T20:20:24.738Z,13.82
2023-05-19T20:22:52.801Z,13.74
2023-05-19T20:25:20.959Z,13.67
2023-05-19T20:27:49.037Z,13.60
2023-05-19T20:30:17.124Z,13.56
2023-05-19T20:32:47.150Z,13.48
2023-05-19T20:35:15.511Z,13.44
2023-05-19T20:37:43.664Z,13.40
2023-05-19T20:40:12.838Z,13.36
2023-05-19T20:42:41.290Z,13.33
2023-05-19T20:45:10.201Z,13.28
2023-05-19T20:47:38.436Z,13.24
2023-05-19T20:50:09.099Z,13.17
2023-05-19T20:52:37.344Z,13.11
2023-05-19T20:55:06.033Z,13.01
2023-05-19T20:57:34.222Z,12.90
2023-05-19T21:00:02.357Z,12.78
2023-05-19T21:02:30.648Z,12.66
2023-05-19T21:04:58.762Z,12.54
2023-05-19T21:07:28.259Z,12.45
2023-05-19T21:09:57.652Z,12.33
2023-05-19T21:12:28.689Z,12.24
2023-05-19T21:14:56.726Z,12.12
2023-05-19T21:17:24.905Z,12.02
2023-05-19T21:19:57.694Z,11.93
2023-05-19T21:22:26.351Z,11.83
2023-05-19T21:24:55.945Z,11.74
2023-05-19T21:27:24.187Z,11.66
2023-05-19T21:29:53.491Z,11.56
2023-05-19T21:32:21.813Z,11.48
2023-05-19T21:34:49.990Z,11.41
2023-05-19T21:37:18.302Z,11.36
2023-05-19T21:39:46.441Z,11.29
2023-05-19T21:42:15.906Z,11.25
2023-05-19T21:44:43.980Z,11.20
2023-05-19T21:47:12.172Z,11.15
2023-05-19T21:49:40.720Z,11.11
2023-05-19T21:52:08.926Z,11.08
2023-05-19T21:54:37.241Z,11.04
2023-05-19T21:57:05.723Z,10.98
2023-05-19T21:59:35.300Z,10.94
2023-05-19T22:02:03.641Z,10.89
2023-05-19T22:04:32.295Z,10.86
2023-05-19T22:07:00.573Z,10.81
2023-05-19T22:09:29.210Z,10.76
2023-05-19T22:11:57.332Z,10.72
2023-05-19T22:14:25.419Z,10.65
2023-05-19T22:16:55.132Z,10.59
2023-05-19T22:19:23.424Z,10.52
2023-05-19T22:21:58.397Z,10.45
2023-05-19T22:24:30.504Z,10.38
2023-05-19T22:26:58.512Z,10.35
2023-05-19T22:29:26.676Z,10.27
2023-05-19T22:31:56.098Z,10.23
2023-05-19T22:34:24.341Z,10.19
2023-05-19T22:36:53.933Z,10.13
2023-05-19T22:39:22.048Z,10.10
2023-05-19T22:41:50.203Z,10.06
2023-05-19T22:44:19.605Z,10.02
2023-05-19T22:46:47.702Z,9.99
2023-05-19T22:49:17.122Z,9.97
2023-05-19T22:51:45.237Z,9.93
2023-05-19T22:54:13.447Z,9.91
2023-05-19T22:56:44.322Z,9.88
2023-05-19T22:59:13.385Z,9.87
2023-05-19T23:01:41.489Z,9.85
2023-05-19T23:04:09.624Z,9.83
2023-05-19T23:06:39.112Z,9.83
2023-05-19T23:09:07.171Z,9.82
2023-05-19T23:11:35.905Z,9.80
2023-05-19T23:14:04.118Z,9.80
2023-05-19T23:16:32.202Z,9.77
2023-05-19T23:19:01.080Z,9.76
2023-05-19T23:21:31.346Z,9.76
2023-05-19T23:24:00.807Z,9.74
2023-05-19T23:26:28.840Z,9.73
2023-05-19T23:28:56.949Z,9.74
2023-05-19T23:31:25.096Z,9.72
2023-05-19T23:33:53.243Z,9.72
2023-05-19T23:36:21.434Z,9.73
2023-05-19T23:38:49.471Z,9.75
2023-05-19T23:41:18.999Z,9.77
2023-05-19T23:43:47.027Z,9.78
2023-05-19T23:46:15.230Z,9.81
2023-05-19T23:48:43.420Z,9.84
2023-05-19T23:51:11.808Z,9.86
2023-05-19T23:53:39.989Z,9.90
2023-05-19T23:56:08.868Z,9.93
2023-05-19T23:58:38.308Z,9.96
